createdAt,value
2017-11-24T00:00:38.860Z,84.30
2017-11-24T00:03:06.321Z,84.20
2017-11-24T00:05:33.806Z,83.80
2017-11-24T00:08:01.340Z,83.90
2017-11-24T00:10:28.794Z,83.70
2017-11-24T00:12:56.264Z,83.80
2017-11-24T00:15:23.937Z,83.70
2017-11-24T00:17:51.377Z,83.40
2017-11-24T00:20:18.964Z,83.30
2017-11-24T00:22:46.419Z,82.70
2017-11-24T00:25:13.865Z,83.10
2017-11-24T00:27:41.338Z,82.70
2017-11-24T00:30:08.767Z,82.90
2017-11-24T00:32:36.266Z,81.90
2017-11-24T00:35:03.723Z,82.60
2017-11-24T00:37:31.175Z,82.80
2017-11-24T00:39:58.627Z,83.50
2017-11-24T00:42:26.165Z,83.10
2017-11-24T00:44:53.641Z,82.70
2017-11-24T00:47:21.106Z,82.60
2017-11-24T00:49:48.570Z,82.80
2017-11-24T00:52:16.014Z,83.00
2017-11-24T00:54:43.475Z,83.40
2017-11-24T00:57:10.954Z,83.40
2017-11-24T00:59:38.408Z,83.10
2017-11-24T01:02:05.867Z,83.10
2017-11-24T01:04:33.337Z,83.70
2017-11-24T01:07:00.787Z,83.90
2017-11-24T01:09:28.242Z,84.70
2017-11-24T01:11:55.682Z,85.50
2017-11-24T01:14:23.599Z,84.70
2017-11-24T01:16:51.818Z,86.00
2017-11-24T01:19:19.295Z,85.90
2017-11-24T01:21:46.751Z,85.50
2017-11-24T01:24:14.228Z,85.20
2017-11-24T01:26:41.674Z,85.30
2017-11-24T01:29:09.146Z,85.10
2017-11-24T01:31:37.509Z,84.30
2017-11-24T01:34:04.958Z,84.50
2017-11-24T01:36:32.435Z,84.60
2017-11-24T01:38:59.909Z,85.10
2017-11-24T01:41:27.370Z,85.00
2017-11-24T01:43:54.831Z,85.60
2017-11-24T01:46:22.289Z,85.20
2017-11-24T01:48:49.729Z,85.00
2017-11-24T01:51:17.209Z,84.90
2017-11-24T01:53:44.652Z,85.70
2017-11-24T01:56:12.129Z,84.70
2017-11-24T01:58:40.357Z,85.20
2017-11-24T02:01:08.054Z,85.20
2017-11-24T02:03:35.506Z,85.20
2017-11-24T02:06:03.758Z,86.50
2017-11-24T02:08:31.246Z,86.50
2017-11-24T02:10:58.676Z,87.90
2017-11-24T02:13:26.136Z,88.80
2017-11-24T02:15:53.596Z,88.80
2017-11-24T02:18:21.053Z,88.90
2017-11-24T02:20:48.498Z,87.90
2017-11-24T02:23:15.990Z,87.60
2017-11-24T02:25:44.199Z,90.00
2017-11-24T02:28:11.667Z,90.00
2017-11-24T02:30:39.096Z,89.40
2017-11-24T02:33:06.553Z,89.80
2017-11-24T02:35:34.032Z,88.90
2017-11-24T02:38:01.543Z,88.30
2017-11-24T02:40:28.999Z,90.20
2017-11-24T02:42:56.459Z,90.10
2017-11-24T02:45:23.923Z,89.80
2017-11-24T02:47:51.395Z,90.00
2017-11-24T02:50:19.606Z,90.60
2017-11-24T02:52:47.063Z,90.50
2017-11-24T02:55:14.497Z,90.10
2017-11-24T02:57:42.072Z,90.50
2017-11-24T03:00:09.546Z,90.30
2017-11-24T03:02:36.987Z,90.60
2017-11-24T03:05:04.461Z,91.50
2017-11-24T03:07:32.090Z,91.50
2017-11-24T03:10:00.290Z,91.80
2017-11-24T03:12:27.862Z,91.80
2017-11-24T03:14:55.332Z,92.20
2017-11-24T03:17:22.782Z,92.30
2017-11-24T03:19:50.249Z,92.60
2017-11-24T03:22:17.687Z,92.80
2017-11-24T03:24:45.164Z,92.60
2017-11-24T03:27:12.601Z,92.80
2017-11-24T03:29:40.084Z,92.90
2017-11-24T03:32:07.539Z,92.80
2017-11-24T03:34:34.999Z,93.00
2017-11-24T03:37:03.060Z,93.50
2017-11-24T03:39:30.535Z,93.60
2017-11-24T03:41:58.607Z,93.40
2017-11-24T03:44:26.052Z,93.70
2017-11-24T03:46:53.499Z,93.80
2017-11-24T03:49:20.943Z,94.00
2017-11-24T03:51:48.402Z,94.00
2017-11-24T03:54:15.879Z,93.90
2017-11-24T03:56:43.342Z,93.70
2017-11-24T03:59:10.797Z,94.20
2017-11-24T04:01:38.255Z,93.80
2017-11-24T04:04:05.710Z,94.20
2017-11-24T04:06:33.194Z,94.30
2017-11-24T04:09:00.657Z,94.40
2017-11-24T04:11:28.091Z,94.10
2017-11-24T04:13:55.559Z,94.50
2017-11-24T04:16:23.012Z,94.50
2017-11-24T04:18:50.474Z,94.50
2017-11-24T04:21:17.926Z,94.80
2017-11-24T04:23:45.420Z,94.70
2017-11-24T04:26:13.670Z,94.70
2017-11-24T04:28:41.130Z,94.70
2017-11-24T04:31:08.602Z,94.70
2017-11-24T04:33:36.047Z,94.80
2017-11-24T04:36:03.531Z,94.70
2017-11-24T04:38:31.712Z,94.80
2017-11-24T04:40:59.162Z,94.80
2017-11-24T04:43:27.394Z,94.60
2017-11-24T04:45:54.958Z,94.60
2017-11-24T04:48:22.407Z,94.70
2017-11-24T04:50:49.869Z,94.60
2017-11-24T04:53:17.337Z,94.50
2017-11-24T04:55:46.327Z,94.50
2017-11-24T04:58:13.795Z,94.50
2017-11-24T05:00:41.245Z,94.40
2017-11-24T05:03:08.704Z,94.40
2017-11-24T05:05:36.163Z,94.40
2017-11-24T05:08:03.651Z,94.50
2017-11-24T05:10:31.898Z,95.10
2017-11-24T05:12:59.357Z,94.70
2017-11-24T05:15:26.829Z,94.60
2017-11-24T05:17:54.290Z,94.70
2017-11-24T05:20:22.497Z,94.60
2017-11-24T05:22:49.966Z,94.60
2017-11-24T05:25:17.397Z,94.40
2017-11-24T05:27:44.883Z,94.30
2017-11-24T05:30:12.327Z,94.10
2017-11-24T05:32:39.779Z,94.60
2017-11-24T05:35:07.254Z,94.50
2017-11-24T05:37:34.694Z,94.30
2017-11-24T05:40:02.163Z,94.40
2017-11-24T05:42:29.610Z,94.90
2017-11-24T05:44:57.064Z,94.90
2017-11-24T05:47:25.270Z,95.40
2017-11-24T05:49:52.731Z,95.40
2017-11-24T05:52:20.195Z,95.20
2017-11-24T05:54:47.643Z,95.60
2017-11-24T05:57:15.098Z,96.20
2017-11-24T05:59:42.549Z,97.10
2017-11-24T06:02:10.010Z,97.90
2017-11-24T06:04:37.466Z,97.50
2017-11-24T06:07:04.929Z,97.00
2017-11-24T06:09:32.662Z,97.00
2017-11-24T06:12:00.096Z,97.20
2017-11-24T06:14:27.538Z,96.80
2017-11-24T06:16:54.996Z,97.10
2017-11-24T06:19:22.438Z,96.80
2017-11-24T06:21:49.879Z,96.90
2017-11-24T06:24:17.344Z,96.60
2017-11-24T06:26:44.838Z,96.50
2017-11-24T06:29:12.282Z,96.00
2017-11-24T06:31:39.744Z,95.50
2017-11-24T06:34:07.197Z,95.80
2017-11-24T06:36:34.639Z,95.70
2017-11-24T06:39:02.269Z,95.20
2017-11-24T06:41:29.728Z,95.50
2017-11-24T06:43:57.194Z,95.40
2017-11-24T06:46:24.664Z,95.10
2017-11-24T06:48:52.107Z,95.00
2017-11-24T06:51:19.581Z,95.00
2017-11-24T06:53:47.029Z,94.90
2017-11-24T06:56:14.496Z,95.10
2017-11-24T06:58:41.948Z,94.90
2017-11-24T07:01:10.180Z,94.90
2017-11-24T07:03:38.423Z,95.10
2017-11-24T07:06:05.883Z,95.10
2017-11-24T07:08:33.326Z,94.70
2017-11-24T07:11:00.783Z,94.80
2017-11-24T07:13:28.247Z,94.60
2017-11-24T07:15:55.730Z,94.60
2017-11-24T07:18:23.195Z,94.60
2017-11-24T07:20:50.649Z,94.40
2017-11-24T07:23:18.859Z,94.00
2017-11-24T07:25:46.295Z,94.00
2017-11-24T07:28:14.494Z,94.50
2017-11-24T07:30:41.932Z,94.40
2017-11-24T07:33:10.166Z,94.70
2017-11-24T07:35:37.626Z,94.70
2017-11-24T07:38:05.089Z,94.40
2017-11-24T07:40:32.519Z,94.40
2017-11-24T07:42:59.948Z,94.60
2017-11-24T07:45:27.381Z,95.20
2017-11-24T07:47:55.586Z,95.20
2017-11-24T07:50:23.050Z,95.10
2017-11-24T07:52:50.490Z,95.00
2017-11-24T07:55:18.683Z,95.10
2017-11-24T07:57:46.159Z,95.10
2017-11-24T08:00:13.592Z,95.10
2017-11-24T08:02:41.040Z,95.50
2017-11-24T08:05:09.608Z,95.30
2017-11-24T08:07:37.053Z,95.30
2017-11-24T08:10:04.512Z,95.30
2017-11-24T08:12:31.976Z,95.80
2017-11-24T08:14:59.398Z,96.30
2017-11-24T08:17:26.835Z,96.40
2017-11-24T08:19:54.275Z,96.10
2017-11-24T08:22:21.735Z,96.10
2017-11-24T08:24:49.184Z,96.10
2017-11-24T08:27:16.652Z,95.90
2017-11-24T08:29:44.133Z,95.60
2017-11-24T08:32:11.598Z,95.60
2017-11-24T08:34:39.031Z,95.40
2017-11-24T08:37:06.483Z,95.20
2017-11-24T08:39:34.171Z,95.50
2017-11-24T08:42:01.618Z,95.60
2017-11-24T08:44:29.058Z,95.40
2017-11-24T08:47:02.296Z,95.60
2017-11-24T08:49:35.454Z,95.60
2017-11-24T08:52:02.925Z,95.40
2017-11-24T08:54:30.387Z,95.40
2017-11-24T08:56:57.884Z,95.40
2017-11-24T08:59:25.315Z,95.00
2017-11-24T09:01:52.790Z,95.40
2017-11-24T09:04:20.223Z,95.00
2017-11-24T09:06:47.686Z,94.90
2017-11-24T09:09:15.138Z,94.70
2017-11-24T09:11:42.602Z,94.70
2017-11-24T09:14:10.054Z,94.70
2017-11-24T09:16:38.099Z,94.70
2017-11-24T09:19:05.557Z,94.30
2017-11-24T09:21:33.013Z,94.30
2017-11-24T09:24:00.436Z,94.40
2017-11-24T09:26:27.867Z,94.40
2017-11-24T09:28:55.332Z,94.50
2017-11-24T09:31:22.777Z,94.70
2017-11-24T09:33:50.216Z,94.20
2017-11-24T09:36:18.083Z,94.50
2017-11-24T09:38:45.545Z,94.70
2017-11-24T09:41:12.998Z,94.60
2017-11-24T09:43:40.456Z,94.90
2017-11-24T09:46:07.910Z,94.90
2017-11-24T09:48:35.369Z,94.80
2017-11-24T09:51:02.829Z,95.00
2017-11-24T09:53:30.286Z,95.00
2017-11-24T09:55:57.747Z,94.90
2017-11-24T09:58:25.206Z,94.80
2017-11-24T10:00:52.673Z,94.80
2017-11-24T10:03:20.148Z,94.80
2017-11-24T10:05:47.555Z,94.60
2017-11-24T10:08:14.990Z,94.20
2017-11-24T10:10:43.223Z,95.40
2017-11-24T10:13:10.685Z,95.40
2017-11-24T10:15:38.177Z,95.00
2017-11-24T10:18:05.608Z,94.60
2017-11-24T10:23:31.906Z,94.60
2017-11-24T10:25:59.846Z,95.00
2017-11-24T10:28:27.311Z,94.30
2017-11-24T10:30:55.567Z,94.60
2017-11-24T10:33:23.940Z,94.60
2017-11-24T10:35:51.437Z,93.80
2017-11-24T10:38:19.645Z,94.70
2017-11-24T10:40:47.066Z,94.60
2017-11-24T10:43:15.318Z,93.80
2017-11-24T10:45:42.777Z,93.80
2017-11-24T10:48:10.969Z,93.70
2017-11-24T10:50:39.180Z,93.70
2017-11-24T10:53:06.614Z,93.70
2017-11-24T10:55:35.065Z,93.90
2017-11-24T10:58:02.521Z,93.90
2017-11-24T11:00:29.988Z,93.20
2017-11-24T11:02:57.421Z,94.10
2017-11-24T11:05:24.852Z,93.90
2017-11-24T11:07:52.296Z,94.10
2017-11-24T11:10:19.743Z,93.60
2017-11-24T11:12:47.199Z,93.40
2017-11-24T11:15:15.390Z,94.20
2017-11-24T11:17:42.859Z,94.20
2017-11-24T11:20:10.299Z,93.40
2017-11-24T11:22:37.767Z,93.50
2017-11-24T11:25:05.248Z,93.20
2017-11-24T11:27:32.749Z,93.20
2017-11-24T11:30:00.965Z,94.60
2017-11-24T11:32:28.410Z,94.40
2017-11-24T11:34:55.852Z,93.20
2017-11-24T11:37:24.054Z,93.80
2017-11-24T11:39:51.627Z,93.80
2017-11-24T11:42:19.079Z,94.50
2017-11-24T11:44:46.706Z,93.90
2017-11-24T11:47:14.294Z,93.30
2017-11-24T11:49:41.759Z,93.50
2017-11-24T11:52:09.219Z,94.30
2017-11-24T11:54:36.919Z,94.10
2017-11-24T11:57:05.182Z,94.80
2017-11-24T11:59:32.644Z,94.70
2017-11-24T12:02:00.078Z,94.20
2017-11-24T12:04:27.539Z,94.90
2017-11-24T12:06:54.998Z,94.60
2017-11-24T12:09:22.457Z,94.00
2017-11-24T12:11:49.900Z,93.60
2017-11-24T12:14:17.348Z,94.50
2017-11-24T12:16:44.820Z,94.30
2017-11-24T12:19:12.268Z,95.20
2017-11-24T12:21:39.728Z,94.40
2017-11-24T12:24:07.210Z,94.60
2017-11-24T12:26:34.655Z,94.50
2017-11-24T12:29:02.128Z,95.00
2017-11-24T12:31:29.582Z,94.50
2017-11-24T12:33:57.057Z,93.40
2017-11-24T12:36:24.516Z,93.90
2017-11-24T12:38:51.982Z,93.50
2017-11-24T12:41:19.429Z,94.40
2017-11-24T12:43:47.572Z,92.80
2017-11-24T12:46:15.031Z,93.40
2017-11-24T12:48:42.491Z,93.50
2017-11-24T12:51:10.880Z,93.30
2017-11-24T12:53:38.339Z,93.10
2017-11-24T12:56:05.793Z,93.60
2017-11-24T12:58:33.213Z,93.00
2017-11-24T13:01:00.653Z,93.00
2017-11-24T13:03:28.891Z,92.70
2017-11-24T13:05:57.083Z,92.90
2017-11-24T13:08:24.520Z,92.90
2017-11-24T13:10:51.979Z,92.80
2017-11-24T13:13:19.435Z,93.40
2017-11-24T13:15:46.858Z,93.30
2017-11-24T13:18:14.294Z,93.40
2017-11-24T13:20:42.502Z,94.20
2017-11-24T13:23:09.926Z,94.20
2017-11-24T13:25:38.113Z,94.20
2017-11-24T13:28:05.564Z,94.20
2017-11-24T13:30:33.769Z,93.70
2017-11-24T13:33:01.200Z,93.60
2017-11-24T13:35:28.658Z,93.40
2017-11-24T13:37:56.110Z,92.90
2017-11-24T13:40:24.306Z,93.40
2017-11-24T13:42:52.739Z,93.40
2017-11-24T13:45:20.966Z,92.60
2017-11-24T13:47:48.422Z,92.60
2017-11-24T13:50:15.853Z,92.40
2017-11-24T13:52:43.322Z,91.10
2017-11-24T13:55:10.787Z,89.90
2017-11-24T13:57:38.238Z,89.60
2017-11-24T14:00:06.439Z,84.80
2017-11-24T14:02:33.890Z,84.80
2017-11-24T14:05:01.366Z,84.60
2017-11-24T14:07:28.805Z,83.30
2017-11-24T14:09:56.259Z,85.00
2017-11-24T14:12:23.718Z,83.70
2017-11-24T14:14:51.161Z,83.80
2017-11-24T14:17:18.630Z,85.10
2017-11-24T14:19:46.801Z,87.10
2017-11-24T14:22:14.257Z,87.40
2017-11-24T14:24:41.700Z,88.60
2017-11-24T14:27:09.909Z,90.50
2017-11-24T14:29:37.372Z,90.50
2017-11-24T14:32:04.851Z,90.20
2017-11-24T14:34:32.279Z,90.50
2017-11-24T14:37:00.758Z,90.90
2017-11-24T14:39:28.218Z,90.90
2017-11-24T14:41:55.674Z,90.70
2017-11-24T14:44:23.147Z,90.40
2017-11-24T14:46:50.614Z,90.10
2017-11-24T14:49:18.058Z,90.60
2017-11-24T14:51:45.516Z,90.50
2017-11-24T14:54:12.969Z,90.30
2017-11-24T14:56:40.451Z,90.30
2017-11-24T14:59:07.922Z,90.70
2017-11-24T15:01:36.158Z,91.20
2017-11-24T15:04:03.603Z,90.80
2017-11-24T15:06:31.063Z,91.10
2017-11-24T15:08:58.535Z,91.20
2017-11-24T15:11:25.988Z,90.80
2017-11-24T15:13:53.444Z,90.90
2017-11-24T15:16:20.918Z,90.80
2017-11-24T15:18:48.412Z,90.80
2017-11-24T15:21:15.838Z,91.10
2017-11-24T15:23:43.311Z,91.50
2017-11-24T15:26:10.787Z,91.10
2017-11-24T15:28:38.247Z,91.30
2017-11-24T15:31:05.709Z,91.10
2017-11-24T15:33:33.166Z,90.90
2017-11-24T15:36:01.210Z,91.40
2017-11-24T15:38:28.698Z,91.70
2017-11-24T15:40:56.946Z,91.10
2017-11-24T15:43:24.402Z,91.10
2017-11-24T15:45:51.862Z,90.90
2017-11-24T15:48:19.351Z,90.70
2017-11-24T15:50:47.543Z,90.80
2017-11-24T15:53:14.983Z,90.80
2017-11-24T15:55:43.180Z,91.10
2017-11-24T15:58:10.622Z,91.10
2017-11-24T16:00:38.865Z,90.90
2017-11-24T16:03:06.327Z,90.90
2017-11-24T16:05:33.783Z,91.60
2017-11-24T16:08:01.262Z,92.10
2017-11-24T16:10:29.457Z,91.80
2017-11-24T16:12:56.932Z,91.70
2017-11-24T16:15:24.367Z,91.90
2017-11-24T16:17:51.827Z,92.20
2017-11-24T16:20:19.304Z,91.60
2017-11-24T16:22:46.752Z,91.50
2017-11-24T16:25:14.227Z,91.10
2017-11-24T16:27:42.572Z,91.40
2017-11-24T16:30:10.814Z,91.80
2017-11-24T16:32:38.292Z,91.80
2017-11-24T16:35:06.504Z,91.70
2017-11-24T16:37:33.949Z,91.70
2017-11-24T16:40:01.401Z,91.50
2017-11-24T16:42:28.858Z,91.60
2017-11-24T16:44:56.315Z,91.90
2017-11-24T16:47:23.775Z,91.90
2017-11-24T16:49:51.239Z,91.90
2017-11-24T16:52:18.690Z,91.70
2017-11-24T16:54:46.154Z,91.80
2017-11-24T16:57:13.641Z,92.00
2017-11-24T16:59:41.111Z,92.30
2017-11-24T17:02:08.544Z,92.50
2017-11-24T17:04:36.000Z,92.50
2017-11-24T17:07:03.439Z,92.10
2017-11-24T17:09:30.896Z,91.90
2017-11-24T17:11:58.338Z,92.00
2017-11-24T17:14:26.562Z,92.50
2017-11-24T17:16:54.005Z,92.40
2017-11-24T17:19:21.467Z,92.40
2017-11-24T17:21:48.917Z,92.00
2017-11-24T17:24:16.393Z,91.90
2017-11-24T17:26:43.845Z,92.10
2017-11-24T17:29:11.436Z,91.80
2017-11-24T17:31:38.873Z,92.30
2017-11-24T17:34:06.347Z,92.60
2017-11-24T17:36:33.783Z,92.40
2017-11-24T17:39:01.249Z,92.40
2017-11-24T17:41:28.717Z,92.20
2017-11-24T17:43:56.193Z,92.10
2017-11-24T17:46:23.649Z,92.30
2017-11-24T17:48:51.116Z,92.70
2017-11-24T17:51:18.563Z,92.50
2017-11-24T17:53:46.019Z,92.20
2017-11-24T17:56:13.465Z,92.10
2017-11-24T17:58:41.159Z,91.90
2017-11-24T18:01:09.991Z,92.10
2017-11-24T18:03:37.551Z,92.10
2017-11-24T18:06:05.028Z,92.20
2017-11-24T18:08:32.517Z,92.00
2017-11-24T18:11:00.388Z,92.00
2017-11-24T18:13:27.856Z,91.90
2017-11-24T18:15:55.397Z,92.00
2017-11-24T18:18:22.846Z,92.10
2017-11-24T18:20:50.323Z,92.20
2017-11-24T18:23:17.784Z,92.40
2017-11-24T18:25:45.603Z,92.40
2017-11-24T18:28:13.061Z,92.40
2017-11-24T18:30:40.513Z,92.20
2017-11-24T18:33:07.978Z,92.30
2017-11-24T18:35:35.432Z,92.50
2017-11-24T18:38:02.892Z,92.50
2017-11-24T18:40:30.358Z,92.20
2017-11-24T18:42:57.814Z,92.00
2017-11-24T18:45:25.269Z,92.10
2017-11-24T18:47:52.731Z,92.10
2017-11-24T18:50:20.188Z,92.20
2017-11-24T18:52:47.660Z,92.20
2017-11-24T18:55:15.106Z,92.20
2017-11-24T18:57:42.565Z,91.90
2017-11-24T19:00:10.024Z,92.10
2017-11-24T19:02:37.510Z,91.90
2017-11-24T19:05:05.707Z,91.90
2017-11-24T19:07:33.176Z,91.90
2017-11-24T19:10:00.641Z,92.10
2017-11-24T19:12:28.092Z,92.40
2017-11-24T19:14:55.547Z,92.30
2017-11-24T19:17:22.990Z,92.10
2017-11-24T19:19:50.455Z,92.20
2017-11-24T19:22:17.923Z,92.10
2017-11-24T19:24:45.358Z,92.20
2017-11-24T19:27:13.559Z,92.10
2017-11-24T19:29:40.997Z,92.10
2017-11-24T19:32:08.457Z,92.10
2017-11-24T19:34:36.709Z,92.10
2017-11-24T19:37:04.170Z,92.10
2017-11-24T19:39:32.485Z,92.30
2017-11-24T19:42:00.630Z,92.30
2017-11-24T19:44:28.846Z,92.20
2017-11-24T19:46:56.287Z,92.20
2017-11-24T19:49:23.771Z,92.40
2017-11-24T19:51:51.207Z,92.70
2017-11-24T19:54:18.666Z,92.50
2017-11-24T19:56:46.126Z,92.80
2017-11-24T19:59:13.588Z,92.60
2017-11-24T20:01:41.041Z,92.40
2017-11-24T20:04:08.498Z,92.60
2017-11-24T20:06:35.975Z,92.80
2017-11-24T20:09:03.419Z,92.90
2017-11-24T20:11:30.894Z,92.70
2017-11-24T20:13:58.338Z,92.50
2017-11-24T20:16:25.807Z,92.70
2017-11-24T20:18:53.251Z,92.60
2017-11-24T20:21:20.718Z,92.60
2017-11-24T20:23:48.174Z,92.60
2017-11-24T20:26:15.651Z,92.60
2017-11-24T20:28:43.117Z,92.50
2017-11-24T20:31:10.546Z,92.50
2017-11-24T20:33:38.033Z,92.60
2017-11-24T20:36:05.486Z,92.60
2017-11-24T20:38:32.928Z,92.80
2017-11-24T20:41:04.615Z,93.00
2017-11-24T20:43:32.564Z,92.90
2017-11-24T20:46:01.377Z,93.00
2017-11-24T20:48:28.812Z,93.10
2017-11-24T20:50:57.014Z,93.20
2017-11-24T20:53:24.825Z,93.20
2017-11-24T20:55:52.519Z,93.20
2017-11-24T20:58:19.967Z,93.10
2017-11-24T21:00:47.426Z,93.10
2017-11-24T21:03:14.910Z,93.10
2017-11-24T21:05:42.357Z,93.30
2017-11-24T21:08:09.810Z,93.30
2017-11-24T21:10:37.285Z,93.10
2017-11-24T21:13:05.494Z,93.30
2017-11-24T21:15:32.928Z,93.30
2017-11-24T21:18:00.916Z,93.20
2017-11-24T21:20:29.125Z,93.30
2017-11-24T21:22:57.358Z,93.20
2017-11-24T21:25:25.539Z,93.10
2017-11-24T21:27:52.992Z,93.00
2017-11-24T21:30:21.216Z,93.10
2017-11-24T21:32:48.680Z,93.10
2017-11-24T21:35:16.136Z,93.60
2017-11-24T21:37:43.603Z,93.10
2017-11-24T21:40:11.055Z,93.20
2017-11-24T21:42:38.516Z,93.30
2017-11-24T21:45:05.979Z,93.30
2017-11-24T21:47:33.450Z,93.10
2017-11-24T21:50:00.895Z,93.10
2017-11-24T21:52:28.325Z,93.20
2017-11-24T21:54:55.765Z,93.00
2017-11-24T21:57:23.198Z,92.70
2017-11-24T21:59:51.406Z,93.00
2017-11-24T22:02:18.865Z,93.00
2017-11-24T22:04:46.271Z,92.80
2017-11-24T22:07:14.478Z,93.00
2017-11-24T22:09:41.924Z,93.00
2017-11-24T22:12:09.389Z,92.70
2017-11-24T22:14:36.825Z,92.70
2017-11-24T22:17:05.038Z,92.50
2017-11-24T22:19:32.497Z,92.50
2017-11-24T22:22:00.859Z,92.30
2017-11-24T22:24:28.315Z,92.20
2017-11-24T22:26:55.768Z,92.10
2017-11-24T22:29:23.978Z,92.20
2017-11-24T22:31:51.422Z,92.20
2017-11-24T22:34:18.878Z,92.20
2017-11-24T22:36:46.338Z,92.30
2017-11-24T22:39:13.823Z,92.30
2017-11-24T22:41:41.274Z,92.40
2017-11-24T22:44:08.714Z,92.70
2017-11-24T22:46:36.150Z,92.50
2017-11-24T22:49:04.422Z,92.60
2017-11-24T22:51:31.902Z,92.80
2017-11-24T22:53:59.340Z,92.60
2017-11-24T22:56:27.558Z,92.30
2017-11-24T22:58:55.023Z,92.20
2017-11-24T23:01:22.454Z,92.40
2017-11-24T23:03:49.919Z,92.50
2017-11-24T23:06:17.374Z,92.40
2017-11-24T23:08:44.840Z,92.10
2017-11-24T23:11:12.303Z,92.00
2017-11-24T23:13:39.774Z,92.10
2017-11-24T23:16:07.218Z,91.80
2017-11-24T23:18:34.694Z,91.80
2017-11-24T23:21:02.155Z,91.90
2017-11-24T23:23:29.619Z,91.90
2017-11-24T23:25:57.063Z,92.00
2017-11-24T23:28:24.518Z,91.80
2017-11-24T23:30:51.959Z,91.70
2017-11-24T23:33:19.411Z,91.50
2017-11-24T23:35:46.883Z,91.60
2017-11-24T23:38:14.334Z,91.70
2017-11-24T23:40:41.804Z,91.80
2017-11-24T23:43:09.275Z,92.00
2017-11-24T23:45:36.754Z,92.00
2017-11-24T23:48:04.208Z,92.10
2017-11-24T23:50:31.662Z,92.20
2017-11-24T23:52:59.129Z,92.20
2017-11-24T23:55:26.572Z,92.10
2017-11-24T23:57:54.785Z,92.40
